»·PEaware :: N700DK KSLE-KAST

N700DK :: KSLE-KAST

FLIGHT INFORMATION

Flight Status: Arrived
Operator: Privately registered:
United States
More flights under this callsign
Pilot: Brendan O. (14500)
Aircraft: CESSNA 340
(C340)
More flights by this aircraft type
Origin: KSLE McNary
United States
Destination: KAST Astoria Regl
United States
More flights between these airports :: More routes between these airports
Route: +UBG PITER
File this flight plan on PilotEdge
Remarks:
Altitude:
(Current/Filed)
5,000ft
Speed:
(Current/Filed)
185kts
Departed: 26-Sep-19 08:39 AM
Arrived: 26-Sep-19 09:28 AM
Distance/Time
Traveled:
83nm/0:49
Distance/Time
To Go:
Arrived

Flight Plot

Page will automatically refresh every two minutes.

Flight plan parsing failed; only flown route is shown


Map Options




Map Legend


Flown Route
Filed Route
Departure Airport
Arrival Airport
Navaid (VOR, NDB)
Fix

Horizontal Profiles

Position Reports

Time Latitude Longitude Heading Altitude Ground
Speed
26-Sep-19 08:33 44.915862 -123.003311 180 199ft 0kts
26-Sep-19 08:33 44.915862 -123.003311 180 199ft 0kts
26-Sep-19 08:34 44.915862 -123.003311 180 199ft 0kts
26-Sep-19 08:35 44.915862 -123.003311 180 199ft 0kts
26-Sep-19 08:36 44.915862 -123.003311 180 199ft 0kts
26-Sep-19 08:37 44.915862 -123.003311 180 199ft 0kts
26-Sep-19 08:38 44.915152 -123.003319 181 200ft 42kts
26-Sep-19 08:39 44.887850 -122.996378 119 1122ft 125kts
26-Sep-19 08:40 44.914483 -122.982818 332 2613ft 140kts
26-Sep-19 08:41 44.949447 -122.999253 337 3996ft 146kts
26-Sep-19 08:42 44.994996 -123.004105 5 4941ft 176kts
26-Sep-19 08:43 45.037085 -122.997560 2 5757ft 185kts
26-Sep-19 08:44 45.073052 -122.991117 5 5954ft 205kts
26-Sep-19 08:45 45.105004 -122.984240 10 6442ft 169kts
26-Sep-19 08:46 45.136041 -122.981638 0 5999ft 170kts
26-Sep-19 08:47 45.169825 -122.982440 358 5909ft 159kts
26-Sep-19 08:48 45.198439 -122.985421 358 5894ft 156kts
26-Sep-19 08:49 45.228323 -122.989938 3 5818ft 159kts
26-Sep-19 08:50 45.254784 -122.990683 3 5948ft 159kts
26-Sep-19 08:51 45.281725 -122.988521 2 6152ft 155kts
26-Sep-19 08:52 45.308841 -122.989067 0 6212ft 157kts
26-Sep-19 08:53 45.334412 -122.989384 356 6118ft 172kts
26-Sep-19 08:54 45.366712 -122.989345 356 6148ft 195kts
26-Sep-19 08:55 45.402432 -122.989658 353 6376ft 197kts
26-Sep-19 08:56 45.440692 -122.991287 349 6373ft 205kts
26-Sep-19 08:57 45.482616 -122.996548 348 6243ft 207kts
26-Sep-19 08:58 45.521505 -123.000488 349 6147ft 207kts
26-Sep-19 08:59 45.558501 -123.004554 349 6074ft 206kts
26-Sep-19 09:00 45.596191 -123.005110 357 6049ft 206kts
26-Sep-19 09:01 45.633290 -123.004177 348 5970ft 206kts
26-Sep-19 09:02 45.668794 -123.010744 349 6498ft 165kts
26-Sep-19 09:03 45.704485 -123.016781 350 6097ft 177kts
26-Sep-19 09:04 45.741847 -123.023749 347 5964ft 169kts
26-Sep-19 09:05 45.775914 -123.033923 350 5966ft 164kts
26-Sep-19 09:06 45.808530 -123.039103 351 6043ft 163kts
26-Sep-19 09:07 45.838974 -123.044406 350 6085ft 163kts
26-Sep-19 09:08 45.868481 -123.050235 349 5989ft 164kts
26-Sep-19 09:09 45.897624 -123.067225 313 5832ft 164kts
26-Sep-19 09:10 45.918556 -123.101892 316 5403ft 172kts
26-Sep-19 09:11 45.939580 -123.131491 320 4908ft 177kts
26-Sep-19 09:12 45.961465 -123.169827 311 4578ft 176kts
26-Sep-19 09:13 45.983889 -123.215733 312 4589ft 169kts
26-Sep-19 09:14 46.006698 -123.260321 306 4607ft 176kts
26-Sep-19 09:15 46.032022 -123.300473 305 4730ft 172kts
26-Sep-19 09:16 46.057371 -123.345862 300 4723ft 171kts
26-Sep-19 09:17 46.081464 -123.390141 301 4605ft 172kts
26-Sep-19 09:18 46.102671 -123.431421 298 4593ft 164kts
26-Sep-19 09:19 46.119726 -123.468917 296 4510ft 161kts
26-Sep-19 09:20 46.131107 -123.505579 285 4397ft 143kts
26-Sep-19 09:21 46.136450 -123.542294 275 3936ft 141kts
26-Sep-19 09:22 46.140585 -123.626617 276 3672ft 130kts
26-Sep-19 09:23 46.144827 -123.688049 277 2879ft 133kts
26-Sep-19 09:24 46.149273 -123.740736 281 1496ft 109kts
26-Sep-19 09:25 46.152016 -123.784411 277 1272ft 103kts
26-Sep-19 09:26 46.157750 -123.849151 267 355ft 105kts
26-Sep-19 09:27 46.158151 -123.878551 247 15ft 12kts
26-Sep-19 09:28 46.156499 -123.881716 35 20ft 0kts
26-Sep-19 09:29 46.156499 -123.881716 35 20ft 0kts
26-Sep-19 09:30 46.156499 -123.881716 35 20ft 0kts

Navigation Log

Ident Type
Flight plan parsing failed, navigation log unavailable